GMFF/FEZ METAR and TAF weather

Enter ICAO airport designator
Station Type Date Time Source
GMFF METAR 2019/02/21 00:30 UTC NOAA

GMFF 210030Z 14003KT CAVOK 08/06 Q1022 NOSIG


Station Type Date Time Source
GMFF Decoded METAR 2019/02/21 00:30 UTC NOAA

Fes-Sais, Morocco (GMFF) 33-56N 004-59W 579M
Feb 20, 2019 - 07:30 PM EST / 2019.02.21 0030 UTC
Wind: from the SE (140 degrees) at 3 MPH (3 KT):0
Visibility: greater than 7 mile(s):0
Temperature: 46 F (8 C)
Dew Point: 42 F (6 C)
Relative Humidity: 87%
Pressure (altimeter): 30.18 in. Hg (1022 hPa)
ob: GMFF 210030Z 14003KT CAVOK 08/06 Q1022 NOSIG
cycle: 0

Station Type Date Time Source
GMFF TAF 2019/02/20 18:21 UTC NOAA

TAF TAF GMFF 201700Z 2018/2124 06010KT CAVOK
BECMG 2019/2021 14006KT


Example: see airport list